createdAt,value
2023-01-15T00:02:50.192Z,9.69
2023-01-15T00:07:52.301Z,9.71
2023-01-15T00:12:54.004Z,9.79
2023-01-15T00:17:55.633Z,9.92
2023-01-15T00:22:57.281Z,9.85
2023-01-15T00:28:00.969Z,10.07
2023-01-15T00:33:03.441Z,10.07
2023-01-15T00:38:05.242Z,10.23
2023-01-15T00:43:06.968Z,10.20
2023-01-15T00:48:09.179Z,10.07
2023-01-15T00:53:10.945Z,10.10
2023-01-15T00:58:12.675Z,10.38
2023-01-15T01:03:14.336Z,10.35
2023-01-15T01:08:17.076Z,10.39
2023-01-15T01:13:18.790Z,10.31
2023-01-15T01:18:20.486Z,10.26
2023-01-15T01:23:25.247Z,10.23
2023-01-15T01:28:26.893Z,10.31
2023-01-15T01:33:28.507Z,10.34
2023-01-15T01:38:30.556Z,10.33
2023-01-15T01:44:11.573Z,10.33
2023-01-15T01:49:14.484Z,10.34
2023-01-15T01:54:20.658Z,10.53
2023-01-15T01:59:24.233Z,10.47
2023-01-15T02:04:27.715Z,10.55
2023-01-15T02:09:29.562Z,10.52
2023-01-15T02:14:42.555Z,10.44
2023-01-15T02:19:58.958Z,10.56
2023-01-15T02:25:19.474Z,10.61
2023-01-15T02:30:31.243Z,10.74
2023-01-15T02:35:43.520Z,10.72
2023-01-15T02:40:50.607Z,10.61
2023-01-15T02:45:58.722Z,10.73
2023-01-15T02:51:07.469Z,10.64
2023-01-15T02:56:14.701Z,10.65
2023-01-15T03:01:29.434Z,10.65
2023-01-15T03:06:55.907Z,10.88
2023-01-15T03:12:28.712Z,10.77
2023-01-15T03:17:39.496Z,11.01
2023-01-15T03:22:46.118Z,10.89
2023-01-15T03:27:52.427Z,10.76
2023-01-15T03:32:56.534Z,10.99
2023-01-15T03:37:59.485Z,11.00
2023-01-15T03:43:27.936Z,10.83
2023-01-15T03:48:41.842Z,10.59
2023-01-15T03:53:53.548Z,10.67
2023-01-15T03:59:16.066Z,10.77
2023-01-15T04:04:32.193Z,10.85
2023-01-15T04:09:40.585Z,10.84
2023-01-15T04:14:45.851Z,10.96
2023-01-15T04:19:52.637Z,10.88
2023-01-15T04:24:55.156Z,10.93
2023-01-15T04:29:56.987Z,10.75
2023-01-15T04:34:58.695Z,10.75
2023-01-15T04:40:00.458Z,10.81
2023-01-15T04:45:02.128Z,10.84
2023-01-15T04:50:03.977Z,10.84
2023-01-15T04:55:05.911Z,10.95
2023-01-15T05:00:08.361Z,10.85
2023-01-15T05:05:10.454Z,10.88
2023-01-15T05:10:12.137Z,10.78
2023-01-15T05:15:13.863Z,10.83
2023-01-15T05:20:15.668Z,11.02
2023-01-15T05:25:17.682Z,11.08
2023-01-15T05:30:19.496Z,11.01
2023-01-15T05:35:21.448Z,10.91
2023-01-15T05:40:23.108Z,10.90
2023-01-15T05:45:24.756Z,11.05
2023-01-15T05:50:28.939Z,11.22
2023-01-15T05:55:30.716Z,11.10
2023-01-15T06:00:32.388Z,10.96
2023-01-15T06:05:34.113Z,11.10
2023-01-15T06:10:35.834Z,11.13
2023-01-15T06:15:37.653Z,11.25
2023-01-15T06:20:40.547Z,11.18
2023-01-15T06:25:42.290Z,11.15
2023-01-15T06:30:44.002Z,11.10
2023-01-15T06:35:45.652Z,10.31
2023-01-15T06:40:47.366Z,9.67
2023-01-15T06:46:07.654Z,9.33
2023-01-15T06:51:09.449Z,8.50
2023-01-15T06:56:11.133Z,7.12
2023-01-15T07:01:15.550Z,6.45
2023-01-15T07:06:17.253Z,6.12
2023-01-15T07:11:19.050Z,5.80
2023-01-15T07:16:29.648Z,5.61
2023-01-15T07:21:31.383Z,5.55
2023-01-15T07:26:33.550Z,5.45
2023-01-15T07:31:35.331Z,5.28
2023-01-15T07:36:38.016Z,5.22
2023-01-15T07:41:58.488Z,5.14
2023-01-15T07:47:18.596Z,5.21
2023-01-15T07:52:22.017Z,5.16
2023-01-15T07:57:24.306Z,5.18
2023-01-15T08:02:27.255Z,5.06
2023-01-15T08:07:29.048Z,4.89
2023-01-15T08:12:48.915Z,4.98
2023-01-15T08:17:51.692Z,5.04
2023-01-15T08:22:53.647Z,5.05
2023-01-15T08:27:55.567Z,5.00
2023-01-15T08:33:03.267Z,4.99
2023-01-15T08:38:06.950Z,5.03
2023-01-15T08:43:08.682Z,5.30
2023-01-15T08:48:10.424Z,5.16
2023-01-15T08:53:12.218Z,5.20
2023-01-15T08:58:14.040Z,5.24
2023-01-15T09:03:15.876Z,5.34
2023-01-15T09:08:19.660Z,5.43
2023-01-15T09:13:22.111Z,5.49
2023-01-15T09:18:24.102Z,5.40
2023-01-15T09:23:25.897Z,5.65
2023-01-15T09:28:29.328Z,5.59
2023-01-15T09:33:31.089Z,5.94
2023-01-15T09:38:34.504Z,5.68
2023-01-15T09:44:11.430Z,5.71
2023-01-15T09:49:28.088Z,5.67
2023-01-15T09:54:41.251Z,5.64
2023-01-15T09:59:49.156Z,5.54
2023-01-15T10:04:57.570Z,5.56
2023-01-15T10:10:05.701Z,5.56
2023-01-15T10:15:13.387Z,5.55
2023-01-15T10:20:48.665Z,5.56
2023-01-15T10:25:59.059Z,5.73
2023-01-15T10:31:19.413Z,5.72
2023-01-15T10:36:30.201Z,5.88
2023-01-15T10:41:31.821Z,5.92
2023-01-15T10:46:38.408Z,5.82
2023-01-15T10:51:47.022Z,6.00
2023-01-15T10:57:11.662Z,6.01
2023-01-15T11:02:22.049Z,5.99
2023-01-15T11:07:33.474Z,6.09
2023-01-15T11:12:54.288Z,6.07
2023-01-15T11:18:14.565Z,6.06
2023-01-15T11:23:20.100Z,5.94
2023-01-15T11:28:35.552Z,5.95
2023-01-15T11:33:38.333Z,5.97
2023-01-15T11:38:50.609Z,5.94
2023-01-15T11:44:16.476Z,5.95
2023-01-15T11:49:39.175Z,5.92
2023-01-15T11:54:44.248Z,5.90
2023-01-15T11:59:49.412Z,5.92
2023-01-15T12:04:59.046Z,5.88
2023-01-15T12:10:05.631Z,6.05
2023-01-15T12:15:29.144Z,6.13
2023-01-15T12:20:55.740Z,6.11
2023-01-15T12:26:03.408Z,6.19
2023-01-15T12:31:17.064Z,6.16
2023-01-15T12:36:24.273Z,6.25
2023-01-15T12:41:52.667Z,6.19
2023-01-15T12:46:54.566Z,6.35
2023-01-15T12:52:11.572Z,6.43
2023-01-15T12:57:18.697Z,6.45
2023-01-15T13:02:43.798Z,6.40
2023-01-15T13:08:03.492Z,6.39
2023-01-15T13:13:15.110Z,6.36
2023-01-15T13:18:28.188Z,6.39
2023-01-15T13:23:30.339Z,6.41
2023-01-15T13:29:09.557Z,6.50
2023-01-15T13:34:36.062Z,6.51
2023-01-15T13:39:42.065Z,6.43
2023-01-15T13:44:50.287Z,6.40
2023-01-15T13:50:04.762Z,6.36
2023-01-15T13:55:12.352Z,6.37
2023-01-15T14:00:36.305Z,6.28
2023-01-15T14:05:39.498Z,6.31
2023-01-15T14:10:41.321Z,6.27
2023-01-15T14:16:07.399Z,6.25
2023-01-15T14:21:40.760Z,6.17
2023-01-15T14:26:57.684Z,6.04
2023-01-15T14:32:12.567Z,6.06
2023-01-15T14:37:30.197Z,6.03
2023-01-15T14:42:54.334Z,5.92
2023-01-15T14:48:16.403Z,5.84
2023-01-15T14:53:31.573Z,5.85
2023-01-15T14:59:12.633Z,5.68
2023-01-15T15:04:39.556Z,5.74
2023-01-15T15:09:57.575Z,5.61
2023-01-15T15:15:26.742Z,5.47
2023-01-15T15:20:31.695Z,5.56
2023-01-15T15:25:38.202Z,5.48
2023-01-15T15:30:45.075Z,5.60
2023-01-15T15:35:57.218Z,5.56
2023-01-15T15:41:02.385Z,5.54
2023-01-15T15:46:39.358Z,5.50
2023-01-15T15:51:54.683Z,5.42
2023-01-15T15:57:09.477Z,5.28
2023-01-15T16:02:19.392Z,5.25
2023-01-15T16:07:38.224Z,5.19
2023-01-15T16:12:45.717Z,5.19
2023-01-15T16:17:49.627Z,5.10
2023-01-15T16:23:02.689Z,5.18
2023-01-15T16:28:05.257Z,5.06
2023-01-15T16:33:08.177Z,5.05
2023-01-15T16:38:22.646Z,4.97
2023-01-15T16:43:26.413Z,4.90
2023-01-15T16:48:36.717Z,4.80
2023-01-15T16:53:40.691Z,4.77
2023-01-15T16:58:42.438Z,4.80
2023-01-15T17:03:44.348Z,4.76
2023-01-15T17:08:49.368Z,4.74
2023-01-15T17:13:52.064Z,4.63
2023-01-15T17:18:53.922Z,4.52
2023-01-15T17:23:57.399Z,4.57
2023-01-15T17:28:59.062Z,4.67
2023-01-15T17:34:03.146Z,4.66
2023-01-15T17:39:04.812Z,4.68
2023-01-15T17:44:06.986Z,4.60
2023-01-15T17:49:08.703Z,4.63
2023-01-15T17:54:10.692Z,4.64
2023-01-15T17:59:30.781Z,4.60
2023-01-15T18:04:56.079Z,4.60
2023-01-15T18:09:59.434Z,4.60
2023-01-15T18:15:01.219Z,4.58
2023-01-15T18:20:03.201Z,4.55
2023-01-15T18:25:06.644Z,4.66
2023-01-15T18:30:13.103Z,4.54
2023-01-15T18:35:14.988Z,4.60
2023-01-15T18:40:16.797Z,4.51
2023-01-15T18:45:37.378Z,4.57
2023-01-15T18:50:39.049Z,4.51
2023-01-15T18:55:40.816Z,4.57
2023-01-15T19:00:42.639Z,4.50
2023-01-15T19:05:44.295Z,4.42
2023-01-15T19:10:46.001Z,4.58
2023-01-15T19:16:06.357Z,4.50
2023-01-15T19:21:10.446Z,4.40
2023-01-15T19:26:12.221Z,4.43
2023-01-15T19:31:32.494Z,4.50
2023-01-15T19:36:34.972Z,4.42
2023-01-15T19:41:54.993Z,4.49
2023-01-15T19:47:15.051Z,4.55
2023-01-15T19:52:35.125Z,4.58
2023-01-15T19:57:37.933Z,4.58
2023-01-15T20:02:39.666Z,4.63
2023-01-15T20:07:42.499Z,4.69
2023-01-15T20:13:02.754Z,4.54
2023-01-15T20:18:05.552Z,4.60
2023-01-15T20:23:07.224Z,4.51
2023-01-15T20:28:08.874Z,4.73
2023-01-15T20:33:33.822Z,4.71
2023-01-15T20:38:39.697Z,4.80
2023-01-15T20:44:15.283Z,4.71
2023-01-15T20:49:28.114Z,4.80
2023-01-15T20:54:29.803Z,4.92
2023-01-15T20:59:31.468Z,4.75
2023-01-15T21:04:33.435Z,4.77
2023-01-15T21:09:35.183Z,4.88
2023-01-15T21:14:36.967Z,4.98
2023-01-15T21:19:38.685Z,4.89
2023-01-15T21:24:40.401Z,4.95
2023-01-15T21:29:42.053Z,4.94
2023-01-15T21:34:43.763Z,4.97
2023-01-15T21:39:45.457Z,4.97
2023-01-15T21:44:47.183Z,4.88
2023-01-15T21:49:49.135Z,4.76
2023-01-15T21:54:52.152Z,4.82
2023-01-15T21:59:53.806Z,4.72
2023-01-15T22:04:55.588Z,4.85
2023-01-15T22:09:57.261Z,4.64
2023-01-15T22:14:58.905Z,4.77
2023-01-15T22:20:00.595Z,4.64
2023-01-15T22:25:02.754Z,4.79
2023-01-15T22:30:05.034Z,4.60
2023-01-15T22:35:07.684Z,4.41
2023-01-15T22:40:09.835Z,4.51
2023-01-15T22:45:11.805Z,4.49
2023-01-15T22:50:13.469Z,4.33
2023-01-15T22:55:15.169Z,4.09
2023-01-15T23:00:17.785Z,3.94
2023-01-15T23:05:19.478Z,3.79
2023-01-15T23:10:21.300Z,3.94
2023-01-15T23:15:22.962Z,3.90
2023-01-15T23:20:24.643Z,3.92
2023-01-15T23:25:26.431Z,3.97
2023-01-15T23:30:28.140Z,3.82
2023-01-15T23:35:30.198Z,4.01
2023-01-15T23:40:31.829Z,4.02
2023-01-15T23:45:54.293Z,3.74
2023-01-15T23:50:56.004Z,3.54
2023-01-15T23:55:59.592Z,3.44
